sensor_id;sensor_type;location;lat;lon;timestamp;P1;durP1;ratioP1;P2;durP2;ratioP2
64678;SDS011;51094;53.864;27.676;2023-09-18T00:00:44;6.43;;;6.32;;
64678;SDS011;51094;53.864;27.676;2023-09-18T00:03:17;6.68;;;6.57;;
64678;SDS011;51094;53.864;27.676;2023-09-18T00:05:47;6.22;;;6.13;;
64678;SDS011;51094;53.864;27.676;2023-09-18T00:08:15;6.82;;;6.72;;
64678;SDS011;51094;53.864;27.676;2023-09-18T00:10:43;6.28;;;6.18;;
64678;SDS011;51094;53.864;27.676;2023-09-18T00:13:14;6.38;;;6.28;;
64678;SDS011;51094;53.864;27.676;2023-09-18T00:15:41;6.03;;;5.93;;
64678;SDS011;51094;53.864;27.676;2023-09-18T00:18:09;6.00;;;5.90;;
64678;SDS011;51094;53.864;27.676;2023-09-18T00:20:36;6.40;;;6.30;;
64678;SDS011;51094;53.864;27.676;2023-09-18T00:23:03;6.50;;;6.40;;
64678;SDS011;51094;53.864;27.676;2023-09-18T00:25:30;6.45;;;6.35;;
64678;SDS011;51094;53.864;27.676;2023-09-18T00:27:58;5.95;;;5.85;;
64678;SDS011;51094;53.864;27.676;2023-09-18T00:30:25;6.10;;;6.00;;
64678;SDS011;51094;53.864;27.676;2023-09-18T00:32:52;5.65;;;5.55;;
64678;SDS011;51094;53.864;27.676;2023-09-18T00:35:19;5.90;;;5.80;;
64678;SDS011;51094;53.864;27.676;2023-09-18T00:37:46;5.97;;;5.88;;
64678;SDS011;51094;53.864;27.676;2023-09-18T00:40:13;6.00;;;5.90;;
64678;SDS011;51094;53.864;27.676;2023-09-18T00:42:40;6.15;;;6.05;;
64678;SDS011;51094;53.864;27.676;2023-09-18T00:45:07;6.15;;;6.05;;
64678;SDS011;51094;53.864;27.676;2023-09-18T00:47:36;6.28;;;6.18;;
64678;SDS011;51094;53.864;27.676;2023-09-18T00:50:04;6.07;;;5.97;;
64678;SDS011;51094;53.864;27.676;2023-09-18T00:52:33;6.03;;;5.93;;
64678;SDS011;51094;53.864;27.676;2023-09-18T00:55:00;6.00;;;5.90;;
64678;SDS011;51094;53.864;27.676;2023-09-18T00:57:28;6.28;;;6.18;;
64678;SDS011;51094;53.864;27.676;2023-09-18T00:59:56;5.75;;;5.65;;
64678;SDS011;51094;53.864;27.676;2023-09-18T01:02:23;5.88;;;5.78;;
64678;SDS011;51094;53.864;27.676;2023-09-18T01:04:50;5.65;;;5.55;;
64678;SDS011;51094;53.864;27.676;2023-09-18T01:07:17;5.95;;;5.85;;
64678;SDS011;51094;53.864;27.676;2023-09-18T01:09:44;5.97;;;5.88;;
64678;SDS011;51094;53.864;27.676;2023-09-18T01:17:50;5.65;;;5.55;;
64678;SDS011;51094;53.864;27.676;2023-09-18T01:20:17;5.95;;;5.85;;
64678;SDS011;51094;53.864;27.676;2023-09-18T01:22:44;5.55;;;5.45;;
64678;SDS011;51094;53.864;27.676;2023-09-18T01:25:11;5.90;;;5.80;;
64678;SDS011;51094;53.864;27.676;2023-09-18T01:27:38;5.85;;;5.75;;
64678;SDS011;51094;53.864;27.676;2023-09-18T01:30:05;6.07;;;5.88;;
64678;SDS011;51094;53.864;27.676;2023-09-18T01:32:32;5.35;;;5.25;;
64678;SDS011;51094;53.864;27.676;2023-09-18T01:35:02;5.75;;;5.65;;
64678;SDS011;51094;53.864;27.676;2023-09-18T01:37:32;5.95;;;5.85;;
64678;SDS011;51094;53.864;27.676;2023-09-18T01:40:02;5.65;;;5.55;;
64678;SDS011;51094;53.864;27.676;2023-09-18T01:42:33;5.65;;;5.55;;
64678;SDS011;51094;53.864;27.676;2023-09-18T01:45:01;5.80;;;5.70;;
64678;SDS011;51094;53.864;27.676;2023-09-18T01:47:29;5.57;;;5.47;;
64678;SDS011;51094;53.864;27.676;2023-09-18T01:49:56;5.47;;;5.38;;
64678;SDS011;51094;53.864;27.676;2023-09-18T01:52:23;5.60;;;5.50;;
64678;SDS011;51094;53.864;27.676;2023-09-18T01:54:49;5.72;;;5.63;;
64678;SDS011;51094;53.864;27.676;2023-09-18T01:57:17;5.57;;;5.47;;
64678;SDS011;51094;53.864;27.676;2023-09-18T01:59:43;5.78;;;5.68;;
64678;SDS011;51094;53.864;27.676;2023-09-18T02:02:12;5.93;;;5.82;;
64678;SDS011;51094;53.864;27.676;2023-09-18T02:04:56;5.70;;;5.60;;
64678;SDS011;51094;53.864;27.676;2023-09-18T02:07:32;5.30;;;5.20;;
64678;SDS011;51094;53.864;27.676;2023-09-18T02:10:00;5.53;;;5.43;;
64678;SDS011;51094;53.864;27.676;2023-09-18T02:12:27;5.68;;;5.57;;
64678;SDS011;51094;53.864;27.676;2023-09-18T02:14:54;5.60;;;5.50;;
64678;SDS011;51094;53.864;27.676;2023-09-18T02:17:23;5.80;;;5.70;;
64678;SDS011;51094;53.864;27.676;2023-09-18T02:19:50;5.15;;;5.05;;
64678;SDS011;51094;53.864;27.676;2023-09-18T02:22:17;5.35;;;5.25;;
64678;SDS011;51094;53.864;27.676;2023-09-18T02:24:44;5.40;;;5.30;;
64678;SDS011;51094;53.864;27.676;2023-09-18T02:27:11;5.40;;;5.30;;
64678;SDS011;51094;53.864;27.676;2023-09-18T02:29:38;4.97;;;4.88;;
64678;SDS011;51094;53.864;27.676;2023-09-18T02:32:05;5.32;;;5.22;;
64678;SDS011;51094;53.864;27.676;2023-09-18T02:34:32;5.47;;;5.38;;
64678;SDS011;51094;53.864;27.676;2023-09-18T02:37:00;5.38;;;5.28;;
64678;SDS011;51094;53.864;27.676;2023-09-18T02:39:27;5.45;;;5.35;;
64678;SDS011;51094;53.864;27.676;2023-09-18T02:41:54;5.32;;;5.22;;
64678;SDS011;51094;53.864;27.676;2023-09-18T02:44:21;5.13;;;5.03;;
64678;SDS011;51094;53.864;27.676;2023-09-18T02:46:48;5.50;;;5.40;;
64678;SDS011;51094;53.864;27.676;2023-09-18T02:49:15;5.43;;;5.32;;
64678;SDS011;51094;53.864;27.676;2023-09-18T02:51:42;5.30;;;5.20;;
64678;SDS011;51094;53.864;27.676;2023-09-18T02:54:08;4.75;;;4.68;;
64678;SDS011;51094;53.864;27.676;2023-09-18T02:56:35;5.32;;;5.22;;
64678;SDS011;51094;53.864;27.676;2023-09-18T02:59:02;5.55;;;5.45;;
64678;SDS011;51094;53.864;27.676;2023-09-18T03:01:29;5.35;;;5.25;;
64678;SDS011;51094;53.864;27.676;2023-09-18T03:03:56;5.82;;;5.72;;
64678;SDS011;51094;53.864;27.676;2023-09-18T03:06:23;5.30;;;5.20;;
64678;SDS011;51094;53.864;27.676;2023-09-18T03:08:50;5.18;;;5.07;;
64678;SDS011;51094;53.864;27.676;2023-09-18T03:11:17;5.40;;;5.30;;
64678;SDS011;51094;53.864;27.676;2023-09-18T03:13:45;5.45;;;5.35;;
64678;SDS011;51094;53.864;27.676;2023-09-18T03:16:15;5.22;;;5.13;;
64678;SDS011;51094;53.864;27.676;2023-09-18T03:18:43;5.63;;;5.53;;
64678;SDS011;51094;53.864;27.676;2023-09-18T03:21:10;5.68;;;5.57;;
64678;SDS011;51094;53.864;27.676;2023-09-18T03:23:37;5.50;;;5.40;;
64678;SDS011;51094;53.864;27.676;2023-09-18T03:26:04;5.22;;;5.13;;
64678;SDS011;51094;53.864;27.676;2023-09-18T03:28:31;5.90;;;5.80;;
64678;SDS011;51094;53.864;27.676;2023-09-18T03:30:58;5.30;;;5.20;;
64678;SDS011;51094;53.864;27.676;2023-09-18T03:33:25;5.50;;;5.40;;
64678;SDS011;51094;53.864;27.676;2023-09-18T03:35:52;5.47;;;5.38;;
64678;SDS011;51094;53.864;27.676;2023-09-18T03:38:24;5.53;;;5.43;;
64678;SDS011;51094;53.864;27.676;2023-09-18T03:40:52;5.82;;;5.72;;
64678;SDS011;51094;53.864;27.676;2023-09-18T03:43:19;5.68;;;5.57;;
64678;SDS011;51094;53.864;27.676;2023-09-18T03:45:48;5.57;;;5.47;;
64678;SDS011;51094;53.864;27.676;2023-09-18T03:48:15;4.93;;;4.93;;
64678;SDS011;51094;53.864;27.676;2023-09-18T03:50:42;5.75;;;5.65;;
64678;SDS011;51094;53.864;27.676;2023-09-18T03:53:10;5.93;;;5.82;;
64678;SDS011;51094;53.864;27.676;2023-09-18T03:55:37;5.65;;;5.55;;
64678;SDS011;51094;53.864;27.676;2023-09-18T03:58:05;5.15;;;5.05;;
64678;SDS011;51094;53.864;27.676;2023-09-18T04:00:31;5.80;;;5.70;;
64678;SDS011;51094;53.864;27.676;2023-09-18T04:02:59;5.43;;;5.32;;
64678;SDS011;51094;53.864;27.676;2023-09-18T04:05:26;5.80;;;5.70;;
64678;SDS011;51094;53.864;27.676;2023-09-18T04:07:55;5.60;;;5.50;;
64678;SDS011;51094;53.864;27.676;2023-09-18T04:10:22;5.70;;;5.60;;
64678;SDS011;51094;53.864;27.676;2023-09-18T04:12:50;6.00;;;5.90;;
64678;SDS011;51094;53.864;27.676;2023-09-18T04:15:19;5.32;;;5.22;;
64678;SDS011;51094;53.864;27.676;2023-09-18T04:17:47;5.82;;;5.72;;
64678;SDS011;51094;53.864;27.676;2023-09-18T04:20:14;5.95;;;5.85;;
64678;SDS011;51094;53.864;27.676;2023-09-18T04:22:42;5.97;;;5.88;;
64678;SDS011;51094;53.864;27.676;2023-09-18T04:25:11;5.97;;;5.88;;
64678;SDS011;51094;53.864;27.676;2023-09-18T04:27:39;5.72;;;5.63;;
64678;SDS011;51094;53.864;27.676;2023-09-18T04:30:07;5.90;;;5.80;;
64678;SDS011;51094;53.864;27.676;2023-09-18T04:32:36;5.72;;;5.63;;
64678;SDS011;51094;53.864;27.676;2023-09-18T04:35:04;6.38;;;6.28;;
64678;SDS011;51094;53.864;27.676;2023-09-18T04:37:36;6.20;;;6.10;;
64678;SDS011;51094;53.864;27.676;2023-09-18T04:40:06;6.18;;;6.07;;
64678;SDS011;51094;53.864;27.676;2023-09-18T04:42:38;6.28;;;6.13;;
64678;SDS011;51094;53.864;27.676;2023-09-18T04:45:06;6.05;;;5.95;;
64678;SDS011;51094;53.864;27.676;2023-09-18T04:47:34;5.53;;;5.43;;
64678;SDS011;51094;53.864;27.676;2023-09-18T04:50:02;5.82;;;5.72;;
64678;SDS011;51094;53.864;27.676;2023-09-18T04:52:37;5.97;;;5.88;;
64678;SDS011;51094;53.864;27.676;2023-09-18T04:55:04;5.75;;;5.65;;
64678;SDS011;51094;53.864;27.676;2023-09-18T04:57:32;6.28;;;6.18;;
64678;SDS011;51094;53.864;27.676;2023-09-18T05:00:01;5.70;;;5.60;;
64678;SDS011;51094;53.864;27.676;2023-09-18T05:02:43;6.05;;;5.95;;
64678;SDS011;51094;53.864;27.676;2023-09-18T05:05:10;6.25;;;6.15;;
64678;SDS011;51094;53.864;27.676;2023-09-18T05:07:38;5.72;;;5.63;;
64678;SDS011;51094;53.864;27.676;2023-09-18T05:10:05;6.28;;;6.07;;
64678;SDS011;51094;53.864;27.676;2023-09-18T05:12:32;6.57;;;6.38;;
64678;SDS011;51094;53.864;27.676;2023-09-18T05:14:59;6.10;;;6.00;;
64678;SDS011;51094;53.864;27.676;2023-09-18T05:17:42;6.30;;;6.20;;
64678;SDS011;51094;53.864;27.676;2023-09-18T05:20:30;6.43;;;6.32;;
64678;SDS011;51094;53.864;27.676;2023-09-18T05:22:58;5.47;;;5.38;;
64678;SDS011;51094;53.864;27.676;2023-09-18T05:25:27;5.40;;;5.30;;
64678;SDS011;51094;53.864;27.676;2023-09-18T05:27:56;5.55;;;5.45;;
64678;SDS011;51094;53.864;27.676;2023-09-18T05:30:27;5.47;;;5.35;;
64678;SDS011;51094;53.864;27.676;2023-09-18T05:33:01;5.10;;;5.00;;
64678;SDS011;51094;53.864;27.676;2023-09-18T05:35:32;5.65;;;5.50;;
64678;SDS011;51094;53.864;27.676;2023-09-18T05:38:00;5.00;;;4.90;;
64678;SDS011;51094;53.864;27.676;2023-09-18T05:40:27;5.75;;;5.60;;
64678;SDS011;51094;53.864;27.676;2023-09-18T05:42:54;5.25;;;5.15;;
64678;SDS011;51094;53.864;27.676;2023-09-18T05:45:22;4.82;;;4.72;;
64678;SDS011;51094;53.864;27.676;2023-09-18T05:47:49;5.55;;;5.45;;
64678;SDS011;51094;53.864;27.676;2023-09-18T05:50:17;5.15;;;5.05;;
64678;SDS011;51094;53.864;27.676;2023-09-18T05:52:44;5.38;;;5.28;;
64678;SDS011;51094;53.864;27.676;2023-09-18T05:55:13;5.40;;;5.30;;
64678;SDS011;51094;53.864;27.676;2023-09-18T05:57:41;5.07;;;4.97;;
64678;SDS011;51094;53.864;27.676;2023-09-18T06:00:08;4.90;;;4.80;;
64678;SDS011;51094;53.864;27.676;2023-09-18T06:02:40;5.07;;;4.97;;
64678;SDS011;51094;53.864;27.676;2023-09-18T06:05:07;4.78;;;4.68;;
64678;SDS011;51094;53.864;27.676;2023-09-18T06:07:38;4.90;;;4.80;;
64678;SDS011;51094;53.864;27.676;2023-09-18T06:10:05;5.32;;;5.22;;
64678;SDS011;51094;53.864;27.676;2023-09-18T06:12:32;5.30;;;5.20;;
64678;SDS011;51094;53.864;27.676;2023-09-18T06:14:59;5.38;;;5.28;;
64678;SDS011;51094;53.864;27.676;2023-09-18T06:17:26;5.18;;;5.07;;
64678;SDS011;51094;53.864;27.676;2023-09-18T06:19:53;5.40;;;5.30;;
64678;SDS011;51094;53.864;27.676;2023-09-18T06:22:20;5.53;;;5.32;;
64678;SDS011;51094;53.864;27.676;2023-09-18T06:24:47;4.95;;;4.85;;
64678;SDS011;51094;53.864;27.676;2023-09-18T06:27:14;5.10;;;5.00;;
64678;SDS011;51094;53.864;27.676;2023-09-18T06:29:41;5.40;;;5.30;;
64678;SDS011;51094;53.864;27.676;2023-09-18T06:32:10;5.50;;;5.40;;
64678;SDS011;51094;53.864;27.676;2023-09-18T06:34:36;5.80;;;5.70;;
64678;SDS011;51094;53.864;27.676;2023-09-18T06:37:04;6.07;;;5.97;;
64678;SDS011;51094;53.864;27.676;2023-09-18T06:39:34;5.57;;;5.47;;
64678;SDS011;51094;53.864;27.676;2023-09-18T06:42:00;5.78;;;5.57;;
64678;SDS011;51094;53.864;27.676;2023-09-18T06:44:27;5.80;;;5.70;;
64678;SDS011;51094;53.864;27.676;2023-09-18T06:46:54;5.75;;;5.55;;
64678;SDS011;51094;53.864;27.676;2023-09-18T06:49:21;5.97;;;5.78;;
64678;SDS011;51094;53.864;27.676;2023-09-18T06:51:48;5.72;;;5.63;;
64678;SDS011;51094;53.864;27.676;2023-09-18T06:54:15;5.80;;;5.70;;
64678;SDS011;51094;53.864;27.676;2023-09-18T06:56:41;5.80;;;5.70;;
64678;SDS011;51094;53.864;27.676;2023-09-18T06:59:11;5.43;;;5.32;;
64678;SDS011;51094;53.864;27.676;2023-09-18T07:01:40;5.50;;;5.40;;
64678;SDS011;51094;53.864;27.676;2023-09-18T07:04:09;5.25;;;5.05;;
64678;SDS011;51094;53.864;27.676;2023-09-18T07:06:36;5.47;;;5.38;;
64678;SDS011;51094;53.864;27.676;2023-09-18T07:09:03;5.43;;;5.32;;
64678;SDS011;51094;53.864;27.676;2023-09-18T07:14:00;5.15;;;4.95;;
64678;SDS011;51094;53.864;27.676;2023-09-18T07:16:29;5.00;;;4.90;;
64678;SDS011;51094;53.864;27.676;2023-09-18T07:18:56;4.78;;;4.60;;
64678;SDS011;51094;53.864;27.676;2023-09-18T07:21:23;4.68;;;4.57;;
64678;SDS011;51094;53.864;27.676;2023-09-18T07:23:49;5.47;;;5.28;;
64678;SDS011;51094;53.864;27.676;2023-09-18T07:26:17;5.00;;;4.90;;
64678;SDS011;51094;53.864;27.676;2023-09-18T07:28:44;5.22;;;5.03;;
64678;SDS011;51094;53.864;27.676;2023-09-18T07:31:11;5.45;;;5.35;;
64678;SDS011;51094;53.864;27.676;2023-09-18T07:33:38;4.78;;;4.68;;
64678;SDS011;51094;53.864;27.676;2023-09-18T07:36:06;5.40;;;5.30;;
64678;SDS011;51094;53.864;27.676;2023-09-18T07:38:33;5.63;;;5.43;;
64678;SDS011;51094;53.864;27.676;2023-09-18T07:41:00;5.32;;;5.22;;
64678;SDS011;51094;53.864;27.676;2023-09-18T07:43:27;5.90;;;5.80;;
64678;SDS011;51094;53.864;27.676;2023-09-18T07:45:54;6.25;;;6.07;;
64678;SDS011;51094;53.864;27.676;2023-09-18T07:48:22;5.40;;;5.30;;
64678;SDS011;51094;53.864;27.676;2023-09-18T07:50:49;5.20;;;5.10;;
64678;SDS011;51094;53.864;27.676;2023-09-18T07:53:18;4.90;;;4.70;;
64678;SDS011;51094;53.864;27.676;2023-09-18T07:55:47;4.60;;;4.50;;
64678;SDS011;51094;53.864;27.676;2023-09-18T07:58:15;4.68;;;4.57;;
64678;SDS011;51094;53.864;27.676;2023-09-18T08:00:42;4.20;;;4.10;;
64678;SDS011;51094;53.864;27.676;2023-09-18T08:03:10;4.40;;;4.30;;
64678;SDS011;51094;53.864;27.676;2023-09-18T08:05:37;4.50;;;4.40;;
64678;SDS011;51094;53.864;27.676;2023-09-18T08:08:04;4.75;;;4.65;;
64678;SDS011;51094;53.864;27.676;2023-09-18T08:10:31;4.63;;;4.53;;
64678;SDS011;51094;53.864;27.676;2023-09-18T08:12:59;4.75;;;4.65;;
64678;SDS011;51094;53.864;27.676;2023-09-18T08:15:26;4.40;;;4.30;;
64678;SDS011;51094;53.864;27.676;2023-09-18T08:17:53;4.00;;;3.90;;
64678;SDS011;51094;53.864;27.676;2023-09-18T08:20:21;4.35;;;4.25;;
64678;SDS011;51094;53.864;27.676;2023-09-18T08:22:48;4.10;;;4.00;;
64678;SDS011;51094;53.864;27.676;2023-09-18T08:25:17;4.03;;;3.92;;
64678;SDS011;51094;53.864;27.676;2023-09-18T08:27:43;4.10;;;4.00;;
64678;SDS011;51094;53.864;27.676;2023-09-18T08:30:12;3.90;;;3.80;;
64678;SDS011;51094;53.864;27.676;2023-09-18T08:32:41;3.83;;;3.80;;
64678;SDS011;51094;53.864;27.676;2023-09-18T08:35:09;3.95;;;3.85;;
64678;SDS011;51094;53.864;27.676;2023-09-18T08:37:36;4.13;;;4.03;;
64678;SDS011;51094;53.864;27.676;2023-09-18T08:40:03;3.80;;;3.70;;
64678;SDS011;51094;53.864;27.676;2023-09-18T08:42:38;3.80;;;3.70;;
64678;SDS011;51094;53.864;27.676;2023-09-18T08:45:08;3.20;;;3.20;;
64678;SDS011;51094;53.864;27.676;2023-09-18T08:47:37;3.33;;;3.22;;
64678;SDS011;51094;53.864;27.676;2023-09-18T08:50:08;3.20;;;3.10;;
64678;SDS011;51094;53.864;27.676;2023-09-18T08:52:36;2.80;;;2.80;;
64678;SDS011;51094;53.864;27.676;2023-09-18T08:55:04;3.35;;;3.28;;
64678;SDS011;51094;53.864;27.676;2023-09-18T08:57:34;2.97;;;2.95;;
64678;SDS011;51094;53.864;27.676;2023-09-18T09:00:03;2.72;;;2.72;;
64678;SDS011;51094;53.864;27.676;2023-09-18T09:05:02;2.58;;;2.58;;
64678;SDS011;51094;53.864;27.676;2023-09-18T09:07:29;2.70;;;2.70;;
64678;SDS011;51094;53.864;27.676;2023-09-18T09:09:58;2.30;;;2.30;;
64678;SDS011;51094;53.864;27.676;2023-09-18T09:15:13;2.50;;;2.50;;
64678;SDS011;51094;53.864;27.676;2023-09-18T09:17:41;2.30;;;2.30;;
64678;SDS011;51094;53.864;27.676;2023-09-18T09:20:09;2.50;;;2.50;;
64678;SDS011;51094;53.864;27.676;2023-09-18T09:22:40;2.30;;;2.30;;
64678;SDS011;51094;53.864;27.676;2023-09-18T09:27:47;2.50;;;2.50;;
64678;SDS011;51094;53.864;27.676;2023-09-18T09:30:21;2.33;;;2.33;;
64678;SDS011;51094;53.864;27.676;2023-09-18T09:32:50;2.53;;;2.53;;
64678;SDS011;51094;53.864;27.676;2023-09-18T09:35:20;2.55;;;2.55;;
64678;SDS011;51094;53.864;27.676;2023-09-18T09:37:49;2.15;;;2.15;;
64678;SDS011;51094;53.864;27.676;2023-09-18T09:40:18;2.45;;;2.40;;
64678;SDS011;51094;53.864;27.676;2023-09-18T09:42:46;2.10;;;2.10;;
64678;SDS011;51094;53.864;27.676;2023-09-18T09:45:14;2.40;;;2.40;;
64678;SDS011;51094;53.864;27.676;2023-09-18T09:47:42;2.63;;;2.63;;
64678;SDS011;51094;53.864;27.676;2023-09-18T09:50:14;2.50;;;2.50;;
64678;SDS011;51094;53.864;27.676;2023-09-18T09:52:46;2.20;;;2.20;;
64678;SDS011;51094;53.864;27.676;2023-09-18T09:57:48;2.13;;;2.13;;
64678;SDS011;51094;53.864;27.676;2023-09-18T10:00:15;2.08;;;2.08;;
64678;SDS011;51094;53.864;27.676;2023-09-18T10:02:55;2.00;;;2.00;;
64678;SDS011;51094;53.864;27.676;2023-09-18T10:05:26;2.00;;;2.00;;
64678;SDS011;51094;53.864;27.676;2023-09-18T10:07:57;2.13;;;2.13;;
64678;SDS011;51094;53.864;27.676;2023-09-18T10:10:31;1.90;;;1.90;;
64678;SDS011;51094;53.864;27.676;2023-09-18T10:13:02;2.10;;;2.10;;
64678;SDS011;51094;53.864;27.676;2023-09-18T10:15:36;2.05;;;2.00;;
64678;SDS011;51094;53.864;27.676;2023-09-18T10:18:15;1.80;;;1.80;;
64678;SDS011;51094;53.864;27.676;2023-09-18T10:20:46;1.90;;;1.90;;
64678;SDS011;51094;53.864;27.676;2023-09-18T10:23:21;1.70;;;1.70;;
64678;SDS011;51094;53.864;27.676;2023-09-18T10:26:00;1.75;;;1.75;;
64678;SDS011;51094;53.864;27.676;2023-09-18T10:28:30;1.70;;;1.70;;
64678;SDS011;51094;53.864;27.676;2023-09-18T10:30:58;1.60;;;1.60;;
64678;SDS011;51094;53.864;27.676;2023-09-18T10:35:55;1.80;;;1.80;;
64678;SDS011;51094;53.864;27.676;2023-09-18T10:38:23;2.00;;;2.00;;
64678;SDS011;51094;53.864;27.676;2023-09-18T10:40:52;2.00;;;2.00;;
64678;SDS011;51094;53.864;27.676;2023-09-18T10:43:22;1.90;;;1.90;;
64678;SDS011;51094;53.864;27.676;2023-09-18T10:45:49;2.00;;;2.00;;
64678;SDS011;51094;53.864;27.676;2023-09-18T10:48:18;2.00;;;2.00;;
64678;SDS011;51094;53.864;27.676;2023-09-18T10:50:45;2.10;;;2.10;;
64678;SDS011;51094;53.864;27.676;2023-09-18T10:53:13;2.55;;;2.50;;
64678;SDS011;51094;53.864;27.676;2023-09-18T10:55:40;2.30;;;2.30;;
64678;SDS011;51094;53.864;27.676;2023-09-18T10:58:09;2.38;;;2.38;;
64678;SDS011;51094;53.864;27.676;2023-09-18T11:00:36;2.50;;;2.40;;
64678;SDS011;51094;53.864;27.676;2023-09-18T11:03:22;2.05;;;2.05;;
64678;SDS011;51094;53.864;27.676;2023-09-18T11:06:11;2.30;;;2.30;;
64678;SDS011;51094;53.864;27.676;2023-09-18T11:08:44;2.40;;;2.40;;
64678;SDS011;51094;53.864;27.676;2023-09-18T11:11:13;2.20;;;2.20;;
64678;SDS011;51094;53.864;27.676;2023-09-18T11:13:47;2.35;;;2.35;;
64678;SDS011;51094;53.864;27.676;2023-09-18T11:16:18;2.30;;;2.30;;
64678;SDS011;51094;53.864;27.676;2023-09-18T11:21:29;2.10;;;2.10;;
64678;SDS011;51094;53.864;27.676;2023-09-18T11:23:57;2.50;;;2.40;;
64678;SDS011;51094;53.864;27.676;2023-09-18T11:26:28;2.90;;;2.85;;
64678;SDS011;51094;53.864;27.676;2023-09-18T11:29:03;2.50;;;2.40;;
64678;SDS011;51094;53.864;27.676;2023-09-18T11:34:15;2.10;;;2.10;;
64678;SDS011;51094;53.864;27.676;2023-09-18T11:36:47;1.90;;;1.90;;
64678;SDS011;51094;53.864;27.676;2023-09-18T11:39:32;2.20;;;2.20;;
64678;SDS011;51094;53.864;27.676;2023-09-18T11:42:09;1.90;;;1.90;;
64678;SDS011;51094;53.864;27.676;2023-09-18T11:44:37;1.88;;;1.88;;
64678;SDS011;51094;53.864;27.676;2023-09-18T11:47:09;1.90;;;1.90;;
64678;SDS011;51094;53.864;27.676;2023-09-18T11:49:51;1.80;;;1.80;;
64678;SDS011;51094;53.864;27.676;2023-09-18T11:52:26;1.80;;;1.80;;
64678;SDS011;51094;53.864;27.676;2023-09-18T11:54:55;1.70;;;1.70;;
64678;SDS011;51094;53.864;27.676;2023-09-18T11:57:24;1.73;;;1.73;;
64678;SDS011;51094;53.864;27.676;2023-09-18T11:59:51;1.70;;;1.70;;
64678;SDS011;51094;53.864;27.676;2023-09-18T12:02:28;1.80;;;1.80;;
64678;SDS011;51094;53.864;27.676;2023-09-18T12:05:10;1.80;;;1.80;;
64678;SDS011;51094;53.864;27.676;2023-09-18T12:07:38;1.88;;;1.88;;
64678;SDS011;51094;53.864;27.676;2023-09-18T12:10:06;2.03;;;2.03;;
64678;SDS011;51094;53.864;27.676;2023-09-18T12:12:35;1.98;;;1.98;;
64678;SDS011;51094;53.864;27.676;2023-09-18T12:15:02;1.83;;;1.83;;
64678;SDS011;51094;53.864;27.676;2023-09-18T12:17:30;1.77;;;1.77;;
64678;SDS011;51094;53.864;27.676;2023-09-18T12:19:57;2.10;;;2.10;;
64678;SDS011;51094;53.864;27.676;2023-09-18T12:22:27;1.80;;;1.80;;
64678;SDS011;51094;53.864;27.676;2023-09-18T12:25:13;1.80;;;1.80;;
64678;SDS011;51094;53.864;27.676;2023-09-18T12:27:43;1.88;;;1.88;;
64678;SDS011;51094;53.864;27.676;2023-09-18T12:30:10;1.97;;;1.97;;
64678;SDS011;51094;53.864;27.676;2023-09-18T12:35:06;1.30;;;1.30;;
64678;SDS011;51094;53.864;27.676;2023-09-18T12:37:34;1.50;;;1.50;;
64678;SDS011;51094;53.864;27.676;2023-09-18T12:40:02;1.45;;;1.45;;
64678;SDS011;51094;53.864;27.676;2023-09-18T12:42:34;1.52;;;1.52;;
64678;SDS011;51094;53.864;27.676;2023-09-18T12:45:02;1.85;;;1.85;;
64678;SDS011;51094;53.864;27.676;2023-09-18T12:47:32;1.67;;;1.67;;
64678;SDS011;51094;53.864;27.676;2023-09-18T12:50:03;1.60;;;1.60;;
64678;SDS011;51094;53.864;27.676;2023-09-18T12:52:30;1.80;;;1.80;;
64678;SDS011;51094;53.864;27.676;2023-09-18T12:54:58;1.90;;;1.90;;
64678;SDS011;51094;53.864;27.676;2023-09-18T12:59:55;2.00;;;2.00;;
64678;SDS011;51094;53.864;27.676;2023-09-18T13:02:22;2.08;;;2.08;;
64678;SDS011;51094;53.864;27.676;2023-09-18T13:04:55;2.08;;;2.03;;
64678;SDS011;51094;53.864;27.676;2023-09-18T13:07:23;2.28;;;2.28;;
64678;SDS011;51094;53.864;27.676;2023-09-18T13:12:46;2.10;;;2.10;;
64678;SDS011;51094;53.864;27.676;2023-09-18T13:15:24;2.05;;;2.05;;
64678;SDS011;51094;53.864;27.676;2023-09-18T13:17:51;2.13;;;2.13;;
64678;SDS011;51094;53.864;27.676;2023-09-18T13:20:20;2.22;;;2.15;;
64678;SDS011;51094;53.864;27.676;2023-09-18T13:22:51;2.10;;;2.10;;
64678;SDS011;51094;53.864;27.676;2023-09-18T13:25:20;2.13;;;2.13;;
64678;SDS011;51094;53.864;27.676;2023-09-18T13:27:49;2.22;;;2.22;;
64678;SDS011;51094;53.864;27.676;2023-09-18T13:30:17;2.25;;;2.25;;
64678;SDS011;51094;53.864;27.676;2023-09-18T13:32:44;2.20;;;2.20;;
64678;SDS011;51094;53.864;27.676;2023-09-18T13:35:11;2.30;;;2.30;;
64678;SDS011;51094;53.864;27.676;2023-09-18T13:37:40;2.38;;;2.38;;
64678;SDS011;51094;53.864;27.676;2023-09-18T13:40:07;2.30;;;2.30;;
64678;SDS011;51094;53.864;27.676;2023-09-18T13:42:35;2.47;;;2.38;;
64678;SDS011;51094;53.864;27.676;2023-09-18T13:45:03;2.50;;;2.50;;
64678;SDS011;51094;53.864;27.676;2023-09-18T13:47:33;2.50;;;2.50;;
64678;SDS011;51094;53.864;27.676;2023-09-18T13:50:01;2.78;;;2.78;;
64678;SDS011;51094;53.864;27.676;2023-09-18T13:52:32;2.53;;;2.53;;
64678;SDS011;51094;53.864;27.676;2023-09-18T13:57:32;2.58;;;2.58;;
64678;SDS011;51094;53.864;27.676;2023-09-18T13:59:59;2.92;;;2.83;;
64678;SDS011;51094;53.864;27.676;2023-09-18T14:02:38;3.00;;;3.00;;
64678;SDS011;51094;53.864;27.676;2023-09-18T14:05:05;2.60;;;2.60;;
64678;SDS011;51094;53.864;27.676;2023-09-18T14:07:33;3.00;;;3.00;;
64678;SDS011;51094;53.864;27.676;2023-09-18T14:10:00;2.80;;;2.80;;
64678;SDS011;51094;53.864;27.676;2023-09-18T14:12:30;2.80;;;2.80;;
64678;SDS011;51094;53.864;27.676;2023-09-18T14:14:57;2.83;;;2.83;;
64678;SDS011;51094;53.864;27.676;2023-09-18T14:17:24;2.88;;;2.80;;
64678;SDS011;51094;53.864;27.676;2023-09-18T14:19:51;2.55;;;2.55;;
64678;SDS011;51094;53.864;27.676;2023-09-18T14:22:20;2.75;;;2.67;;
64678;SDS011;51094;53.864;27.676;2023-09-18T14:24:47;2.90;;;2.80;;
64678;SDS011;51094;53.864;27.676;2023-09-18T14:27:14;2.75;;;2.75;;
64678;SDS011;51094;53.864;27.676;2023-09-18T14:29:41;2.85;;;2.75;;
64678;SDS011;51094;53.864;27.676;2023-09-18T14:32:08;2.97;;;2.88;;
64678;SDS011;51094;53.864;27.676;2023-09-18T14:34:35;3.22;;;3.13;;
64678;SDS011;51094;53.864;27.676;2023-09-18T14:37:02;3.00;;;3.00;;
64678;SDS011;51094;53.864;27.676;2023-09-18T14:39:33;3.40;;;3.30;;
64678;SDS011;51094;53.864;27.676;2023-09-18T14:42:00;3.03;;;3.03;;
64678;SDS011;51094;53.864;27.676;2023-09-18T14:44:28;3.00;;;3.00;;
64678;SDS011;51094;53.864;27.676;2023-09-18T14:46:54;3.10;;;3.00;;
64678;SDS011;51094;53.864;27.676;2023-09-18T14:49:22;2.97;;;2.92;;
64678;SDS011;51094;53.864;27.676;2023-09-18T14:51:49;3.30;;;3.20;;
64678;SDS011;51094;53.864;27.676;2023-09-18T14:54:16;3.40;;;3.30;;
64678;SDS011;51094;53.864;27.676;2023-09-18T14:56:43;3.40;;;3.40;;
64678;SDS011;51094;53.864;27.676;2023-09-18T14:59:12;4.90;;;4.72;;
64678;SDS011;51094;53.864;27.676;2023-09-18T15:01:47;3.38;;;3.28;;
64678;SDS011;51094;53.864;27.676;2023-09-18T15:04:15;3.50;;;3.40;;
64678;SDS011;51094;53.864;27.676;2023-09-18T15:06:42;3.50;;;3.40;;
64678;SDS011;51094;53.864;27.676;2023-09-18T15:09:09;3.47;;;3.38;;
64678;SDS011;51094;53.864;27.676;2023-09-18T15:11:35;3.67;;;3.58;;
64678;SDS011;51094;53.864;27.676;2023-09-18T15:14:02;3.53;;;3.42;;
64678;SDS011;51094;53.864;27.676;2023-09-18T15:16:29;3.25;;;3.25;;
64678;SDS011;51094;53.864;27.676;2023-09-18T15:18:57;3.38;;;3.28;;